createdAt,value
2023-04-25T00:02:01.247Z,100
2023-04-25T00:07:11.538Z,100
2023-04-25T00:13:01.246Z,100
2023-04-25T00:18:11.532Z,100
2023-04-25T00:23:11.536Z,100
2023-04-25T00:29:01.301Z,100
2023-04-25T00:34:11.581Z,100
2023-04-25T00:40:01.246Z,100
2023-04-25T00:45:11.518Z,100
2023-04-25T00:51:01.233Z,100
2023-04-25T00:56:11.558Z,100
2023-04-25T01:02:01.279Z,100
2023-04-25T01:07:11.527Z,100
2023-04-25T01:13:01.265Z,100
2023-04-25T01:18:11.603Z,100
2023-04-25T01:24:01.254Z,100
2023-04-25T01:29:01.297Z,100
2023-04-25T01:34:11.548Z,100
2023-04-25T01:40:01.247Z,100
2023-04-25T01:45:11.536Z,100
2023-04-25T01:51:01.282Z,100
2023-04-25T01:56:11.543Z,100
2023-04-25T02:01:11.567Z,100
2023-04-25T02:07:01.250Z,100
2023-04-25T02:12:11.534Z,100
2023-04-25T02:18:01.390Z,100
2023-04-25T02:23:11.556Z,100
2023-04-25T02:29:01.324Z,100
2023-04-25T02:34:11.560Z,100
2023-04-25T02:39:11.546Z,100
2023-04-25T02:45:01.253Z,100
2023-04-25T02:50:01.287Z,100
2023-04-25T02:55:11.531Z,100
2023-04-25T03:01:01.281Z,100
2023-04-25T03:06:11.533Z,100
2023-04-25T03:11:11.581Z,100
2023-04-25T03:17:01.335Z,100
2023-04-25T03:22:11.589Z,100
2023-04-25T03:28:01.253Z,100
2023-04-25T03:33:11.768Z,100
2023-04-25T03:39:01.260Z,100
2023-04-25T03:44:11.535Z,100
2023-04-25T03:49:11.543Z,100
2023-04-25T03:55:01.286Z,100
2023-04-25T04:00:11.537Z,100
2023-04-25T04:06:01.256Z,100
2023-04-25T04:11:11.545Z,100
2023-04-25T04:16:11.580Z,100
2023-04-25T04:21:11.546Z,100
2023-04-25T04:27:01.272Z,100
2023-04-25T04:32:11.555Z,100
2023-04-25T04:37:11.545Z,100
2023-04-25T04:42:11.547Z,100
2023-04-25T04:47:11.576Z,100
2023-04-25T04:53:01.266Z,100
2023-04-25T04:58:11.545Z,100
2023-04-25T05:03:11.664Z,100
2023-04-25T05:09:01.284Z,100
2023-04-25T05:14:11.527Z,100
2023-04-25T05:19:11.570Z,100
2023-04-25T05:24:11.565Z,100
2023-04-25T05:29:11.642Z,100
2023-04-25T05:35:01.328Z,100
2023-04-25T05:40:11.543Z,100
2023-04-25T05:45:11.545Z,100
2023-04-25T05:51:01.269Z,100
2023-04-25T05:56:11.534Z,100
2023-04-25T06:01:11.607Z,100
2023-04-25T06:07:01.241Z,100
2023-04-25T06:12:11.527Z,100
2023-04-25T06:17:11.565Z,100
2023-04-25T06:23:01.248Z,100
2023-04-25T06:28:01.264Z,100
2023-04-25T06:33:01.344Z,100
2023-04-25T06:38:11.520Z,100
2023-04-25T06:43:11.565Z,100
2023-04-25T06:49:01.240Z,100
2023-04-25T06:54:01.268Z,100
2023-04-25T06:59:01.275Z,100
2023-04-25T07:04:11.760Z,90.8
2023-04-25T07:10:01.298Z,98.7
2023-04-25T07:15:01.279Z,87.2
2023-04-25T07:20:11.535Z,73
2023-04-25T07:25:11.565Z,59.4
2023-04-25T07:31:01.271Z,59.3
2023-04-25T07:36:11.547Z,56.9
2023-04-25T07:41:11.560Z,49.5
2023-04-25T07:47:03.151Z,52.1
2023-04-25T07:52:11.544Z,51.7
2023-04-25T07:57:11.554Z,51.7
2023-04-25T08:02:11.585Z,53.9
2023-04-25T08:08:01.276Z,55.3
2023-04-25T08:13:01.306Z,56.7
2023-04-25T08:18:11.660Z,60.7
2023-04-25T08:24:01.257Z,62.4
2023-04-25T08:29:01.288Z,63.5
2023-04-25T08:34:01.343Z,63.9
2023-04-25T08:39:11.557Z,63.8
2023-04-25T08:45:01.855Z,64.4
2023-04-25T08:50:01.284Z,62.5
2023-04-25T08:55:01.285Z,60
2023-04-25T09:00:11.550Z,59.3
2023-04-25T09:05:11.553Z,55.4
2023-04-25T09:10:11.566Z,56.7
2023-04-25T09:21:04.240Z,55.8
2023-04-25T09:26:01.299Z,58.9
2023-04-25T09:31:11.565Z,57.5
2023-04-25T09:37:01.276Z,55.9
2023-04-25T09:42:01.434Z,57
2023-04-25T09:47:01.298Z,57.5
2023-04-25T09:52:11.577Z,61.3
2023-04-25T09:58:01.288Z,62.3
2023-04-25T10:03:01.411Z,59.3
2023-04-25T10:08:11.575Z,62.1
2023-04-25T10:13:11.577Z,57.3
2023-04-25T10:19:01.298Z,58
2023-04-25T10:24:01.370Z,58.8
2023-04-25T10:29:11.654Z,53.7
2023-04-25T10:35:01.288Z,50.3
2023-04-25T10:40:11.610Z,50.8
2023-04-25T10:51:11.608Z,48.9
2023-04-25T10:56:12.556Z,50.5
2023-04-25T11:02:01.453Z,53.2
2023-04-25T11:07:06.354Z,55.5
2023-04-25T11:12:11.578Z,55.7
2023-04-25T11:17:11.655Z,54.7
2023-04-25T11:23:01.320Z,54.2
2023-04-25T11:28:01.319Z,54.2
2023-04-25T11:33:11.623Z,51.3
2023-04-25T11:38:11.611Z,47.2
2023-04-25T11:43:11.622Z,44.9
2023-04-25T11:49:01.298Z,46.7
2023-04-25T11:54:01.306Z,49
2023-04-25T11:59:12.293Z,48.9
2023-04-25T12:05:15.835Z,49.3
2023-04-25T12:10:11.588Z,49.4
2023-04-25T12:21:11.669Z,49.6
2023-04-25T12:27:01.305Z,47.9
2023-04-25T12:32:01.340Z,49.3
2023-04-25T12:37:11.685Z,48.4
2023-04-25T12:42:11.599Z,47.4
2023-04-25T12:47:11.673Z,43.7
2023-04-25T12:53:01.314Z,43.7
2023-04-25T12:58:01.317Z,41
2023-04-25T13:03:01.399Z,42.4
2023-04-25T13:08:01.326Z,40.5
2023-04-25T13:13:11.822Z,40.6
2023-04-25T13:19:01.311Z,40.4
2023-04-25T13:24:11.598Z,40.5
2023-04-25T13:29:11.622Z,41.8
2023-04-25T13:34:11.694Z,40.8
2023-04-25T13:40:01.306Z,40.1
2023-04-25T13:45:01.333Z,40
2023-04-25T13:50:11.624Z,42.7
2023-04-25T13:56:01.333Z,43.5
2023-04-25T14:01:01.423Z,44.4
2023-04-25T14:06:11.606Z,43.9
2023-04-25T14:12:01.311Z,44.8
2023-04-25T14:17:01.346Z,46.7
2023-04-25T14:22:11.621Z,45.4
2023-04-25T14:27:11.605Z,46.3
2023-04-25T14:32:11.635Z,44.5
2023-04-25T14:38:01.303Z,42.6
2023-04-25T14:43:01.329Z,46.5
2023-04-25T14:48:11.732Z,47.8
2023-04-25T14:53:11.616Z,47.6
2023-04-25T14:58:11.635Z,50.2
2023-04-25T15:10:01.439Z,43.7
2023-04-25T15:15:12.151Z,43.4
2023-04-25T15:21:01.339Z,43.6
2023-04-25T15:26:11.715Z,45.2
2023-04-25T15:32:01.384Z,47.1
2023-04-25T15:37:01.366Z,48.3
2023-04-25T15:42:01.365Z,47.5
2023-04-25T15:47:11.640Z,44.2
2023-04-25T15:53:01.343Z,46.1
2023-04-25T15:58:01.343Z,45.5
2023-04-25T16:03:01.495Z,42.1
2023-04-25T16:08:11.628Z,45.1
2023-04-25T16:13:11.632Z,46.2
2023-04-25T16:18:11.697Z,43.7
2023-04-25T16:23:11.677Z,44.8
2023-04-25T16:29:01.358Z,45.5
2023-04-25T16:34:01.371Z,45.1
2023-04-25T16:39:11.642Z,45.2
2023-04-25T16:44:11.650Z,45.2
2023-04-25T16:50:01.366Z,46
2023-04-25T16:55:11.658Z,50.5
2023-04-25T17:01:01.404Z,50.3
2023-04-25T17:06:01.367Z,51.7
2023-04-25T17:11:11.645Z,53.5
2023-04-25T17:17:01.485Z,49.7
2023-04-25T17:22:11.669Z,50
2023-04-25T17:28:01.373Z,48.3
2023-04-25T17:33:01.398Z,50.8
2023-04-25T17:38:11.655Z,53.5
2023-04-25T17:43:11.682Z,55.6
2023-04-25T17:49:01.369Z,55.2
2023-04-25T17:54:11.689Z,54.2
2023-04-25T17:59:11.713Z,56.3
2023-04-25T18:05:01.384Z,55.6
2023-04-25T18:10:11.645Z,61.4
2023-04-25T18:15:11.733Z,63.7
2023-04-25T18:21:01.365Z,64.2
2023-04-25T18:26:01.364Z,65.7
2023-04-25T18:31:11.840Z,67.2
2023-04-25T18:37:01.367Z,67.8
2023-04-25T18:42:06.467Z,69
2023-04-25T18:47:01.383Z,69.4
2023-04-25T18:52:11.680Z,70.4
2023-04-25T18:58:01.406Z,69.6
2023-04-25T19:03:11.852Z,71.1
2023-04-25T19:09:01.390Z,71.8
2023-04-25T19:14:11.648Z,72.9
2023-04-25T19:19:11.681Z,75.1
2023-04-25T19:25:09.830Z,75.1
2023-04-25T19:30:11.656Z,75.9
2023-04-25T19:36:01.403Z,75.3
2023-04-25T19:41:11.681Z,76.9
2023-04-25T19:46:11.709Z,77.7
2023-04-25T19:52:01.378Z,75.4
2023-04-25T19:57:11.634Z,77.2
2023-04-25T20:02:11.745Z,78.6
2023-04-25T20:07:11.671Z,79.2
2023-04-25T20:13:01.377Z,78.9
2023-04-25T20:18:11.681Z,78
2023-04-25T20:23:11.685Z,78.2
2023-04-25T20:29:01.384Z,78.9
2023-04-25T20:34:11.653Z,81.1
2023-04-25T20:39:11.683Z,81.9
2023-04-25T20:44:11.744Z,82.7
2023-04-25T20:50:01.407Z,84.1
2023-04-25T20:55:11.695Z,83.4
2023-04-25T21:00:11.679Z,83.7
2023-04-25T21:06:01.373Z,84.5
2023-04-25T21:11:01.373Z,84.9
2023-04-25T21:16:01.378Z,85.4
2023-04-25T21:21:11.698Z,87.5
2023-04-25T21:27:01.386Z,88.1
2023-04-25T21:32:01.382Z,88.6
2023-04-25T21:37:11.688Z,88.4
2023-04-25T21:48:01.416Z,88.4
2023-04-25T21:53:11.683Z,88.6
2023-04-25T21:59:01.377Z,89.9
2023-04-25T22:04:01.544Z,90.2
2023-04-25T22:09:11.651Z,91
2023-04-25T22:14:11.688Z,91.9
2023-04-25T22:19:11.692Z,92.9
2023-04-25T22:25:01.378Z,92.4
2023-04-25T22:30:01.396Z,93.7
2023-04-25T22:35:11.679Z,96.6
2023-04-25T22:40:11.705Z,96.5
2023-04-25T22:51:01.407Z,95.5
2023-04-25T22:56:11.683Z,95.4
2023-04-25T23:01:11.757Z,95.6
2023-04-25T23:07:01.378Z,96.4
2023-04-25T23:12:01.382Z,96.9
2023-04-25T23:17:11.790Z,97.6
2023-04-25T23:23:01.388Z,99.2
2023-04-25T23:28:01.385Z,100
2023-04-25T23:33:11.695Z,100
2023-04-25T23:38:11.699Z,100
2023-04-25T23:44:01.372Z,100
2023-04-25T23:49:01.381Z,100
2023-04-25T23:54:11.657Z,100
2023-04-25T23:59:11.654Z,100
